Time;durP1;ratioP1;P1;durP2;ratioP2;P2;SDS_P1;SDS_P2;PMS_P1;PMS_P2;Temp;Humidity;BMP_temperature;BMP_pressure;BME280_temperature;BME280_humidity;BME280_pressure;Samples;Min_cycle;Max_cycle;Signal;HPM_P1;HPM_P2
2022/07/01 00:00:49;;;;;;;11.10;9.90;;;27.50;66.70;;;;;;220446;1268;22567;-52
2022/07/01 00:05:52;;;;;;;12.70;10.40;;;27.40;65.50;;;;;;220130;1268;26555;-49
2022/07/01 00:10:54;;;;;;;11.70;9.40;;;27.40;65.40;;;;;;220199;1268;22606;-53
2022/07/01 00:15:56;;;;;;;12.30;10.10;;;27.40;65.30;;;;;;220264;1268;25567;-51
2022/07/01 00:21:02;;;;;;;14.60;9.60;;;27.40;65.50;;;;;;220242;1268;25259;-49
2022/07/01 00:26:04;;;;;;;12.30;9.80;;;27.30;64.70;;;;;;221897;1268;22552;-49
2022/07/01 00:31:07;;;;;;;13.10;9.40;;;27.30;65.40;;;;;;220502;1268;23527;-50
2022/07/01 00:36:10;;;;;;;11.60;9.70;;;27.30;64.50;;;;;;221130;1268;22688;-48
2022/07/01 00:41:12;;;;;;;11.00;9.60;;;27.30;64.60;;;;;;220804;1265;25498;-49
2022/07/01 00:46:15;;;;;;;10.70;9.00;;;27.30;64.40;;;;;;220847;1268;22803;-47
2022/07/01 00:51:24;;;;;;;11.50;9.90;;;27.30;64.70;;;;;;220838;1268;24374;-48
2022/07/01 00:56:27;;;;;;;11.20;9.80;;;27.40;64.80;;;;;;220678;1265;25222;-48
2022/07/01 01:01:30;;;;;;;11.30;9.00;;;27.30;64.70;;;;;;220363;1265;22604;-49
2022/07/01 01:06:33;;;;;;;12.30;9.70;;;27.30;64.70;;;;;;220360;1268;24209;-49
2022/07/01 01:11:36;;;;;;;11.60;9.30;;;27.30;64.00;;;;;;228368;1266;22496;-48
2022/07/01 01:16:38;;;;;;;11.60;8.90;;;27.30;63.80;;;;;;228372;1266;22428;-46
2022/07/01 01:21:41;;;;;;;10.50;9.30;;;27.30;64.00;;;;;;225152;1267;247771;-52
2022/07/01 01:26:43;;;;;;;11.00;9.60;;;27.40;64.10;;;;;;220556;1268;23493;-47
2022/07/01 01:31:46;;;;;;;10.60;9.10;;;27.40;63.80;;;;;;221041;1268;24499;-52
2022/07/01 01:36:49;;;;;;;11.40;9.50;;;27.40;63.40;;;;;;220745;1268;24263;-47
2022/07/01 01:41:51;;;;;;;10.10;9.10;;;27.30;64.00;;;;;;220878;1266;24430;-49
2022/07/01 01:46:54;;;;;;;12.10;10.00;;;27.20;63.60;;;;;;220187;1267;24261;-48
2022/07/01 01:51:59;;;;;;;10.90;9.50;;;27.20;64.60;;;;;;220868;1268;22592;-50
2022/07/01 01:57:02;;;;;;;11.60;9.30;;;27.10;64.00;;;;;;220794;1268;24189;-48
2022/07/01 02:02:05;;;;;;;10.60;9.50;;;27.10;63.70;;;;;;220289;1268;22712;-47
2022/07/01 02:07:07;;;;;;;11.50;9.10;;;27.10;63.90;;;;;;220726;1268;24286;-49
2022/07/01 02:12:10;;;;;;;11.70;9.40;;;27.00;63.80;;;;;;221128;1268;22714;-49
2022/07/01 02:17:12;;;;;;;9.70;8.70;;;27.10;63.80;;;;;;220635;1265;22703;-49
2022/07/01 02:22:15;;;;;;;13.40;8.60;;;27.00;63.80;;;;;;220622;1267;22564;-50
2022/07/01 02:27:18;;;;;;;13.90;8.70;;;27.00;63.30;;;;;;220594;1268;22546;-49
2022/07/01 02:32:21;;;;;;;10.60;8.60;;;27.00;63.30;;;;;;220457;1268;25356;-49
2022/07/01 02:37:23;;;;;;;11.50;8.20;;;27.00;63.40;;;;;;221049;1268;22541;-49
2022/07/01 02:42:26;;;;;;;10.80;8.40;;;27.00;63.40;;;;;;220540;1268;25483;-48
2022/07/01 02:47:39;;;;;;;14.30;8.80;;;27.00;63.70;;;;;;221013;1268;24363;-48
2022/07/01 02:52:42;;;;;;;9.80;8.10;;;27.00;63.00;;;;;;220737;1268;23179;-50
2022/07/01 02:57:49;;;;;;;10.10;8.40;;;27.10;63.00;;;;;;221041;1268;22566;-48
2022/07/01 03:02:52;;;;;;;9.30;8.30;;;27.00;62.90;;;;;;220454;1268;22812;-51
2022/07/01 03:07:54;;;;;;;9.90;7.70;;;27.10;63.00;;;;;;220446;1268;24204;-48
2022/07/01 03:12:58;;;;;;;12.50;8.10;;;27.00;62.80;;;;;;220900;1268;24257;-51
2022/07/01 03:18:01;;;;;;;8.70;7.80;;;27.00;63.30;;;;;;220695;1268;25255;-54
2022/07/01 03:23:03;;;;;;;9.30;8.30;;;26.90;63.00;;;;;;220541;1268;25450;-48
2022/07/01 03:28:05;;;;;;;10.80;8.20;;;26.90;63.50;;;;;;220666;1268;22548;-51
2022/07/01 03:33:07;;;;;;;13.70;8.40;;;26.90;63.30;;;;;;220515;1270;22567;-49
2022/07/01 03:38:19;;;;;;;14.80;9.00;;;26.90;63.40;;;;;;220755;1268;25356;-51
2022/07/01 03:43:31;;;;;;;11.10;8.70;;;26.90;63.30;;;;;;220228;1267;22696;-51
2022/07/01 03:48:36;;;;;;;9.70;7.80;;;26.90;63.50;;;;;;220908;1268;22624;-49
2022/07/01 03:59:04;;;;;;;13.10;8.70;;;26.90;63.20;;;;;;220389;1268;22550;-48
2022/07/01 04:04:07;;;;;;;12.70;9.30;;;26.80;63.00;;;;;;220518;1268;24288;-49
2022/07/01 04:09:12;;;;;;;11.60;8.90;;;26.90;63.00;;;;;;221008;1268;22594;-53
2022/07/01 04:14:17;;;;;;;10.30;8.50;;;26.90;63.10;;;;;;220522;1270;24243;-48
2022/07/01 04:19:21;;;;;;;9.90;8.80;;;26.90;63.00;;;;;;220262;1268;22557;-51
2022/07/01 04:24:24;;;;;;;13.60;8.90;;;26.90;63.00;;;;;;220545;1268;25429;-49
2022/07/01 04:29:29;;;;;;;12.10;8.80;;;26.90;63.00;;;;;;220313;1268;24271;-53
2022/07/01 04:34:31;;;;;;;12.10;8.60;;;26.90;63.10;;;;;;221006;1270;25257;-49
2022/07/01 04:39:33;;;;;;;13.50;9.00;;;26.90;63.20;;;;;;220422;1268;25620;-52
2022/07/01 04:44:37;;;;;;;14.10;10.00;;;26.90;63.30;;;;;;220065;1268;24781;-51
2022/07/01 04:49:45;;;;;;;14.00;9.60;;;26.80;63.30;;;;;;220607;1266;24309;-52
2022/07/01 04:54:48;;;;;;;14.40;10.90;;;26.80;63.40;;;;;;220898;1265;24286;-51
2022/07/01 04:59:50;;;;;;;15.30;10.40;;;26.80;63.50;;;;;;220670;1265;25471;-50
2022/07/01 05:04:54;;;;;;;14.60;10.60;;;26.70;64.10;;;;;;220795;1268;24421;-48
2022/07/01 05:09:56;;;;;;;13.30;9.80;;;26.70;63.90;;;;;;220664;1266;25550;-54
2022/07/01 05:15:01;;;;;;;14.70;10.10;;;26.80;64.00;;;;;;221017;1269;25247;-51
2022/07/01 05:25:29;;;;;;;12.30;11.00;;;26.80;64.30;;;;;;220787;1268;24208;-49
2022/07/01 05:30:32;;;;;;;14.80;11.90;;;26.80;64.70;;;;;;220871;1268;22593;-53
2022/07/01 05:35:34;;;;;;;16.70;12.20;;;26.70;65.20;;;;;;220445;1268;25265;-49
2022/07/01 05:40:37;;;;;;;18.20;12.40;;;26.60;65.40;;;;;;220868;1268;23672;-52
2022/07/01 05:45:39;;;;;;;15.70;12.40;;;26.40;65.80;;;;;;220653;1269;24290;-51
2022/07/01 05:50:41;;;;;;;15.60;11.30;;;26.40;66.40;;;;;;220637;1268;22588;-49
2022/07/01 05:55:44;;;;;;;14.00;12.00;;;26.40;66.90;;;;;;220978;1268;24070;-49
2022/07/01 06:00:46;;;;;;;18.30;12.30;;;25.90;69.50;;;;;;221060;1268;22713;-51
2022/07/01 06:05:48;;;;;;;17.60;12.30;;;25.70;69.90;;;;;;220429;1268;22736;-48
2022/07/01 06:10:51;;;;;;;16.50;12.90;;;25.80;70.00;;;;;;220405;1268;22883;-48
2022/07/01 06:15:53;;;;;;;18.70;12.40;;;25.90;70.30;;;;;;220730;1268;22627;-49
2022/07/01 06:20:59;;;;;;;18.00;12.20;;;25.80;70.20;;;;;;220700;1268;22578;-46
2022/07/01 06:26:01;;;;;;;16.90;12.90;;;25.90;70.10;;;;;;220410;1265;25280;-51
2022/07/01 06:31:03;;;;;;;28.00;12.90;;;26.00;70.10;;;;;;220402;1268;23270;-49
2022/07/01 06:36:06;;;;;;;17.40;12.60;;;26.30;70.20;;;;;;220282;1268;22572;-48
2022/07/01 06:41:27;;;;;;;17.60;12.90;;;26.20;70.50;;;;;;220418;1268;22539;-51
2022/07/01 06:46:32;;;;;;;18.30;12.30;;;26.20;70.30;;;;;;221096;1268;24288;-47
2022/07/01 06:51:35;;;;;;;21.40;12.40;;;26.30;70.70;;;;;;220607;1268;24373;-51
2022/07/01 06:56:37;;;;;;;176.00;26.30;;;26.40;70.60;;;;;;220679;1265;24265;-48
2022/07/01 07:01:40;;;;;;;46.50;14.60;;;26.40;69.50;;;;;;220372;1265;22525;-48
2022/07/01 07:06:51;;;;;;;33.40;14.20;;;26.40;69.40;;;;;;220685;1268;22555;-54
2022/07/01 07:11:54;;;;;;;28.10;13.90;;;26.40;69.50;;;;;;220686;1268;23934;-46
2022/07/01 07:16:57;;;;;;;22.60;12.00;;;26.50;69.90;;;;;;220682;1269;22535;-51
2022/07/01 07:22:00;;;;;;;21.90;12.90;;;26.60;69.30;;;;;;220857;1265;24205;-50
2022/07/01 07:27:03;;;;;;;22.30;12.10;;;26.70;69.30;;;;;;220527;1265;24261;-48
2022/07/01 07:32:06;;;;;;;15.80;11.80;;;26.80;68.90;;;;;;220845;1270;22670;-49
2022/07/01 07:37:08;;;;;;;19.20;12.00;;;26.80;69.00;;;;;;220515;1268;22773;-48
2022/07/01 07:42:11;;;;;;;16.20;11.60;;;26.90;69.40;;;;;;220694;1268;22557;-52
2022/07/01 07:47:13;;;;;;;16.80;11.10;;;27.00;68.80;;;;;;220536;1268;22567;-47
2022/07/01 07:52:18;;;;;;;17.60;10.90;;;27.10;68.30;;;;;;221091;1268;22547;-48
2022/07/01 07:57:21;;;;;;;17.30;11.70;;;27.10;67.70;;;;;;220705;1268;22544;-49
2022/07/01 08:02:26;;;;;;;19.70;11.10;;;27.10;68.00;;;;;;220706;1268;22553;-50
2022/07/01 08:07:29;;;;;;;14.70;10.60;;;27.20;67.80;;;;;;220251;1265;22745;-49
2022/07/01 08:12:32;;;;;;;15.90;10.70;;;27.40;68.30;;;;;;220573;1268;23111;-51
2022/07/01 08:17:35;;;;;;;14.10;10.10;;;27.40;67.70;;;;;;220938;1268;25335;-50
2022/07/01 08:22:40;;;;;;;19.60;11.40;;;27.50;67.90;;;;;;220618;1268;22668;-47
2022/07/01 08:27:43;;;;;;;19.80;10.90;;;27.60;67.70;;;;;;220681;1265;25317;-49
2022/07/01 08:32:46;;;;;;;17.90;10.30;;;27.70;68.60;;;;;;221079;1269;22547;-46
2022/07/01 08:37:48;;;;;;;12.60;10.70;;;27.80;67.50;;;;;;221001;1265;25242;-49
2022/07/01 08:42:51;;;;;;;16.40;11.60;;;27.80;67.50;;;;;;220829;1267;22691;-53
2022/07/01 08:48:00;;;;;;;14.30;11.50;;;28.00;67.60;;;;;;220600;1268;22542;-47
2022/07/01 08:53:07;;;;;;;15.70;11.30;;;28.10;67.30;;;;;;221073;1265;26631;-47
2022/07/01 08:58:09;;;;;;;16.20;10.60;;;28.10;66.70;;;;;;220832;1268;22553;-48
2022/07/01 09:03:11;;;;;;;12.80;10.70;;;28.20;66.60;;;;;;220687;1265;22567;-49
2022/07/01 09:08:14;;;;;;;16.50;11.40;;;28.30;66.90;;;;;;220526;1268;22570;-47
2022/07/01 09:13:19;;;;;;;16.40;11.30;;;28.40;67.00;;;;;;220762;1265;22658;-50
2022/07/01 09:18:27;;;;;;;15.50;10.80;;;28.40;67.90;;;;;;220535;1265;25398;-49
2022/07/01 09:23:35;;;;;;;15.90;11.00;;;28.50;67.90;;;;;;220575;1265;23573;-50
2022/07/01 09:28:38;;;;;;;14.50;11.00;;;28.10;64.90;;;;;;220634;1265;25367;-48
2022/07/01 09:33:42;;;;;;;15.50;11.40;;;27.60;68.00;;;;;;221067;1268;22550;-50
2022/07/01 09:38:47;;;;;;;12.20;10.40;;;27.40;64.20;;;;;;220548;1267;22570;-50
2022/07/01 09:43:50;;;;;;;13.40;10.50;;;27.70;64.80;;;;;;220895;1268;24398;-50
2022/07/01 09:48:53;;;;;;;13.10;10.70;;;27.40;67.20;;;;;;220884;1265;22800;-53
2022/07/01 09:53:56;;;;;;;12.70;10.10;;;27.60;63.00;;;;;;220500;1265;25246;-49
2022/07/01 09:59:07;;;;;;;14.40;11.40;;;27.40;67.30;;;;;;220399;1267;22586;-55
2022/07/01 10:04:12;;;;;;;12.70;11.40;;;27.50;65.80;;;;;;220973;1265;23264;-52
2022/07/01 10:09:36;;;;;;;11.80;10.60;;;27.60;65.30;;;;;;220711;1268;26551;-51
2022/07/01 10:14:40;;;;;;;15.10;11.10;;;27.80;66.10;;;;;;219998;1268;22540;-46
2022/07/01 10:19:55;;;;;;;14.20;11.50;;;28.00;65.20;;;;;;222282;1265;24374;-50
2022/07/01 10:25:29;;;;;;;17.40;11.00;;;28.30;64.90;;;;;;221146;1265;22553;-54
2022/07/01 10:30:35;;;;;;;15.90;10.70;;;28.50;63.60;;;;;;220887;1265;25429;-52
2022/07/01 10:35:37;;;;;;;11.60;10.40;;;28.50;63.80;;;;;;220850;1268;24296;-50
2022/07/01 10:40:45;;;;;;;12.80;10.50;;;28.50;64.00;;;;;;220641;1268;22782;-49
2022/07/01 10:45:52;;;;;;;12.50;10.90;;;28.60;63.80;;;;;;220819;1267;24214;-48
2022/07/01 10:50:54;;;;;;;14.40;10.30;;;28.70;63.40;;;;;;221154;1268;22786;-48
2022/07/01 10:55:59;;;;;;;13.40;10.30;;;28.70;63.40;;;;;;220747;1268;24255;-51
2022/07/01 11:01:03;;;;;;;14.50;10.10;;;28.70;63.40;;;;;;220480;1265;25397;-49
2022/07/01 11:06:07;;;;;;;17.30;11.50;;;28.90;62.80;;;;;;220487;1265;22529;-48
2022/07/01 11:11:20;;;;;;;13.60;10.70;;;28.90;62.80;;;;;;220790;1268;25330;-46
2022/07/01 11:16:29;;;;;;;14.10;11.00;;;29.10;62.80;;;;;;220720;1268;24293;-49
2022/07/01 11:21:34;;;;;;;15.40;10.50;;;29.30;61.50;;;;;;220516;1268;24353;-50
2022/07/01 11:26:38;;;;;;;11.50;10.20;;;29.30;61.40;;;;;;220560;1266;23755;-49
2022/07/01 11:31:40;;;;;;;11.30;10.00;;;29.20;61.30;;;;;;220573;1268;24424;-50
2022/07/01 11:42:11;;;;;;;11.80;9.70;;;29.50;60.90;;;;;;220143;1268;23909;-48
2022/07/01 11:47:24;;;;;;;14.20;9.60;;;29.80;59.60;;;;;;220894;1268;25378;-48
2022/07/01 11:52:27;;;;;;;15.30;9.20;;;29.70;59.60;;;;;;220618;1267;23962;-48
2022/07/01 11:57:29;;;;;;;13.40;8.30;;;30.00;58.10;;;;;;221079;1265;25248;-51
2022/07/01 12:02:33;;;;;;;13.60;9.70;;;30.30;56.20;;;;;;220767;1265;22549;-49
2022/07/01 12:07:45;;;;;;;12.50;8.50;;;30.10;57.80;;;;;;220699;1265;22568;-50
2022/07/01 12:12:49;;;;;;;14.00;9.70;;;30.00;58.00;;;;;;221126;1266;22538;-49
2022/07/01 12:18:07;;;;;;;22.50;8.60;;;29.60;58.80;;;;;;221032;1268;22566;-51
2022/07/01 12:23:14;;;;;;;16.10;7.50;;;29.20;60.00;;;;;;220818;1265;22563;-49
2022/07/01 12:28:39;;;;;;;13.20;7.20;;;29.00;60.50;;;;;;220939;1265;22547;-47
2022/07/01 12:33:49;;;;;;;14.50;6.60;;;28.80;60.90;;;;;;220501;1265;22550;-51
2022/07/01 12:39:06;;;;;;;17.70;7.20;;;28.60;61.50;;;;;;220489;1265;22554;-55
2022/07/01 12:44:25;;;;;;;11.50;7.00;;;28.50;62.20;;;;;;220686;1265;22698;-49
2022/07/01 12:49:28;;;;;;;9.30;7.70;;;28.40;62.20;;;;;;220485;1265;23159;-47
2022/07/01 12:54:37;;;;;;;9.80;7.20;;;28.40;62.50;;;;;;220469;1266;25247;-48
2022/07/01 12:59:40;;;;;;;8.70;7.20;;;28.50;62.70;;;;;;220459;1267;22554;-48
2022/07/01 13:04:45;;;;;;;9.20;6.50;;;28.50;62.70;;;;;;220682;1268;23271;-47
2022/07/01 13:09:50;;;;;;;10.70;6.50;;;28.30;62.70;;;;;;220700;1268;25254;-49
2022/07/01 13:14:53;;;;;;;10.90;6.30;;;28.30;62.70;;;;;;220912;1268;22704;-47
2022/07/01 13:19:56;;;;;;;8.80;6.30;;;28.20;62.60;;;;;;220669;1268;306518;-47
2022/07/01 13:25:00;;;;;;;8.10;6.40;;;28.10;62.80;;;;;;220834;1265;22760;-49
2022/07/01 13:30:08;;;;;;;8.60;6.20;;;28.20;63.00;;;;;;220903;1268;22547;-48
2022/07/01 13:35:14;;;;;;;8.30;6.40;;;28.20;63.00;;;;;;220909;1268;24575;-49
2022/07/01 13:40:17;;;;;;;11.60;6.30;;;28.20;63.00;;;;;;220537;1267;22555;-51
2022/07/01 13:45:21;;;;;;;8.20;6.30;;;28.20;62.80;;;;;;220839;1265;26491;-47
2022/07/01 13:50:24;;;;;;;10.70;6.00;;;28.20;63.40;;;;;;221182;1268;24249;-46
2022/07/01 13:55:26;;;;;;;9.00;6.60;;;28.10;63.20;;;;;;220827;1265;26458;-45
2022/07/01 14:00:30;;;;;;;9.00;6.50;;;28.00;63.20;;;;;;220597;1268;22534;-51
2022/07/01 14:05:35;;;;;;;8.30;6.10;;;28.00;64.20;;;;;;220482;1265;23072;-49
2022/07/01 14:10:37;;;;;;;9.30;6.90;;;27.90;64.90;;;;;;220433;1268;22633;-47
2022/07/01 14:15:40;;;;;;;13.30;7.10;;;27.70;65.20;;;;;;220452;1268;22641;-50
2022/07/01 14:20:44;;;;;;;12.30;7.60;;;27.60;66.40;;;;;;220692;1262;22554;-51
2022/07/01 14:25:49;;;;;;;11.20;7.50;;;27.70;66.90;;;;;;220904;1267;24691;-48
2022/07/01 14:30:54;;;;;;;10.20;7.50;;;27.80;66.80;;;;;;220918;1265;23394;-47
2022/07/01 14:35:56;;;;;;;13.70;8.50;;;27.70;68.20;;;;;;220231;1267;24259;-54
2022/07/01 14:40:59;;;;;;;14.80;12.10;;;27.60;69.00;;;;;;220658;1268;25247;-47
2022/07/01 14:46:03;;;;;;;15.80;13.30;;;27.30;69.50;;;;;;221213;1265;22556;-51
2022/07/01 14:51:06;;;;;;;15.30;12.90;;;27.10;69.20;;;;;;220877;1268;24288;-49
2022/07/01 14:56:09;;;;;;;14.50;12.50;;;27.10;68.80;;;;;;220241;1267;22726;-49
2022/07/01 15:01:11;;;;;;;17.90;11.70;;;27.00;68.40;;;;;;220689;1265;22537;-50
2022/07/01 15:06:14;;;;;;;12.10;9.20;;;27.00;67.70;;;;;;220843;1265;22547;-50
2022/07/01 15:11:19;;;;;;;10.20;8.40;;;27.10;65.70;;;;;;220563;1267;25310;-51
2022/07/01 15:16:40;;;;;;;9.90;8.50;;;27.20;64.20;;;;;;220832;1265;22700;-49
2022/07/01 15:21:48;;;;;;;8.60;7.40;;;26.90;64.00;;;;;;220068;1267;24263;-48
2022/07/01 15:27:03;;;;;;;9.70;8.10;;;26.90;63.30;;;;;;220546;1268;22535;-50
2022/07/01 15:32:09;;;;;;;11.90;8.70;;;27.00;63.80;;;;;;220903;1268;23943;-48
2022/07/01 15:37:21;;;;;;;12.20;8.60;;;27.10;65.00;;;;;;219949;1267;22634;-50
2022/07/01 15:42:29;;;;;;;11.60;7.50;;;27.10;65.30;;;;;;220590;1267;24403;-47
2022/07/01 15:53:14;;;;;;;11.30;8.50;;;27.10;61.90;;;;;;220036;1267;25293;-55
2022/07/01 15:58:19;;;;;;;12.20;8.10;;;27.10;65.90;;;;;;220698;1268;24420;-52
2022/07/01 16:03:21;;;;;;;17.30;9.50;;;27.00;65.30;;;;;;220824;1268;25410;-48
2022/07/01 16:08:33;;;;;;;12.20;7.90;;;27.10;67.50;;;;;;220587;1268;24457;-49
2022/07/01 16:13:47;;;;;;;9.20;8.10;;;26.90;64.20;;;;;;220345;1268;22624;-52
2022/07/01 16:18:51;;;;;;;9.40;7.90;;;27.10;67.80;;;;;;220573;1265;24418;-50
2022/07/01 16:24:02;;;;;;;10.20;8.30;;;27.10;64.70;;;;;;220576;1268;23258;-51
2022/07/01 16:29:06;;;;;;;10.00;8.40;;;27.00;68.10;;;;;;220630;1265;24326;-52
2022/07/01 16:34:08;;;;;;;14.50;8.30;;;27.10;68.50;;;;;;220472;1265;25253;-51
2022/07/01 16:39:20;;;;;;;10.00;8.40;;;26.90;64.10;;;;;;220901;1268;22573;-50
2022/07/01 16:44:39;;;;;;;8.80;7.80;;;27.00;68.60;;;;;;220812;1266;22541;-49
2022/07/01 16:49:48;;;;;;;8.50;7.60;;;27.10;69.30;;;;;;220211;1265;25370;-50
2022/07/01 16:55:00;;;;;;;11.50;7.60;;;27.10;66.80;;;;;;222929;1266;25380;-51
2022/07/01 17:00:08;;;;;;;8.30;7.40;;;26.90;69.20;;;;;;220602;1265;22543;-47
2022/07/01 17:05:10;;;;;;;12.30;7.70;;;27.00;69.20;;;;;;220500;1267;22559;-51
2022/07/01 17:10:15;;;;;;;11.10;7.40;;;27.10;69.90;;;;;;220200;1267;22547;-50
2022/07/01 17:15:19;;;;;;;7.90;6.30;;;26.80;64.80;;;;;;220813;1268;25314;-50
2022/07/01 17:20:21;;;;;;;9.60;5.70;;;26.90;68.80;;;;;;220761;1265;24356;-48
2022/07/01 17:25:36;;;;;;;7.80;4.60;;;27.00;67.60;;;;;;220741;1268;22609;-48
2022/07/01 17:30:53;;;;;;;6.40;4.00;;;26.70;64.40;;;;;;220412;1268;24019;-47
2022/07/01 17:35:59;;;;;;;6.60;4.10;;;26.70;64.40;;;;;;220950;1265;24356;-49
2022/07/01 17:41:03;;;;;;;5.50;3.20;;;26.70;64.30;;;;;;220667;1268;25235;-49
2022/07/01 17:46:06;;;;;;;6.00;2.90;;;26.80;63.30;;;;;;220987;1266;25238;-49
2022/07/01 17:51:10;;;;;;;8.20;3.10;;;26.70;63.20;;;;;;220727;1268;25286;-53
2022/07/01 17:56:13;;;;;;;8.20;2.80;;;26.70;63.70;;;;;;220718;1268;22534;-49
2022/07/01 18:01:19;;;;;;;7.60;2.90;;;26.60;62.50;;;;;;220582;1268;22537;-48
2022/07/01 18:06:22;;;;;;;6.70;2.40;;;26.60;62.70;;;;;;222744;1265;25339;-48
2022/07/01 18:11:45;;;;;;;7.10;2.60;;;26.60;61.70;;;;;;220767;1268;22583;-48
2022/07/01 18:17:00;;;;;;;7.10;2.90;;;26.40;61.60;;;;;;220802;1268;22642;-47
2022/07/01 18:22:06;;;;;;;5.70;2.30;;;26.20;62.00;;;;;;220852;1268;24264;-49
2022/07/01 18:27:28;;;;;;;3.30;2.50;;;26.00;62.10;;;;;;220855;1265;23823;-48
2022/07/01 18:32:52;;;;;;;7.20;2.60;;;25.80;63.00;;;;;;220696;1268;26560;-47
2022/07/01 18:38:00;;;;;;;4.20;2.20;;;25.80;62.10;;;;;;220610;1265;22618;-47
2022/07/01 18:43:24;;;;;;;3.10;2.20;;;25.50;62.30;;;;;;220234;1268;22550;-49
2022/07/01 18:48:39;;;;;;;4.40;2.60;;;25.40;62.30;;;;;;220621;1268;25322;-49
2022/07/01 18:53:45;;;;;;;4.20;2.30;;;25.40;61.90;;;;;;220350;1268;22598;-57
2022/07/01 18:58:57;;;;;;;9.40;2.50;;;25.60;61.90;;;;;;220324;1268;24247;-50
2022/07/01 19:04:09;;;;;;;5.30;2.20;;;25.60;61.90;;;;;;221031;1268;24291;-48
2022/07/01 19:09:22;;;;;;;5.20;2.10;;;25.40;62.40;;;;;;220727;1268;22785;-47
2022/07/01 19:14:36;;;;;;;5.70;1.90;;;25.20;63.00;;;;;;220525;1265;25375;-49
2022/07/01 19:19:47;;;;;;;5.10;2.80;;;25.40;61.30;;;;;;220586;1268;26503;-51
2022/07/01 19:25:02;;;;;;;11.00;2.90;;;25.40;61.30;;;;;;220658;1268;22658;-53
2022/07/01 19:30:15;;;;;;;8.90;2.60;;;25.70;62.90;;;;;;220880;1266;25192;-49
2022/07/01 19:35:38;;;;;;;6.10;2.20;;;26.00;62.20;;;;;;220880;1268;25287;-48
2022/07/01 19:40:58;;;;;;;7.50;2.30;;;26.00;61.50;;;;;;220918;1269;22981;-48
2022/07/01 19:46:07;;;;;;;;;;;25.90;61.00;;;;;;221041;1268;26545;-48
2022/07/01 19:51:17;;;;;;;4.50;2.30;;;26.00;60.80;;;;;;220112;1267;25253;-48
2022/07/01 19:56:38;;;;;;;5.40;2.30;;;26.00;60.30;;;;;;220464;1270;23906;-48
2022/07/01 20:01:58;;;;;;;6.10;1.70;;;26.10;60.40;;;;;;220939;1265;22563;-50
2022/07/01 20:07:27;;;;;;;5.70;2.00;;;26.10;59.30;;;;;;221052;1268;24219;-48
2022/07/01 20:12:53;;;;;;;6.50;1.90;;;25.90;59.00;;;;;;220633;1268;22535;-47
2022/07/01 20:18:05;;;;;;;5.10;2.10;;;25.80;59.30;;;;;;220299;1267;22548;-47
2022/07/01 20:23:16;;;;;;;12.70;2.10;;;25.90;58.90;;;;;;220941;1265;22543;-48
2022/07/01 20:29:04;;;;;;;;;;;;;;;;;;;;;
2022/07/01 20:34:29;;;;;;;5.00;2.00;;;26.00;58.90;;;;;;220637;1268;22556;-46
2022/07/01 20:39:38;;;;;;;4.70;2.30;;;26.10;58.80;;;;;;220540;1267;22684;-47
2022/07/01 20:45:01;;;;;;;6.40;2.40;;;26.10;58.70;;;;;;220775;1265;24418;-44
2022/07/01 20:50:11;;;;;;;3.20;2.20;;;26.10;58.70;;;;;;220412;1265;22557;-45
2022/07/01 20:55:14;;;;;;;4.40;1.90;;;26.10;58.60;;;;;;220731;1268;25349;-45
2022/07/01 21:00:18;;;;;;;9.90;4.50;;;26.20;58.50;;;;;;220516;1265;22530;-49
2022/07/01 21:05:23;;;;;;;6.00;3.40;;;26.30;61.60;;;;;;220798;1270;23938;-46
2022/07/01 21:10:26;;;;;;;7.50;2.90;;;26.30;61.50;;;;;;220323;1268;25312;-47
2022/07/01 21:15:29;;;;;;;6.30;2.60;;;26.30;60.00;;;;;;220571;1268;25413;-46
2022/07/01 21:20:35;;;;;;;4.60;2.80;;;26.30;59.60;;;;;;220548;1268;22569;-46
2022/07/01 21:25:39;;;;;;;7.00;2.40;;;26.20;60.10;;;;;;220965;1268;24211;-48
2022/07/01 21:30:49;;;;;;;3.50;2.40;;;26.30;59.30;;;;;;220599;1268;24239;-46
2022/07/01 21:36:04;;;;;;;4.10;2.30;;;26.30;59.80;;;;;;220925;1268;24607;-49
2022/07/01 21:41:06;;;;;;;4.40;2.50;;;26.30;59.60;;;;;;220682;1268;25356;-50
2022/07/01 21:46:14;;;;;;;4.30;2.50;;;26.30;58.60;;;;;;220740;1269;22656;-48
2022/07/01 21:51:31;;;;;;;3.70;2.00;;;26.30;58.20;;;;;;220628;1268;26477;-47
2022/07/01 21:56:40;;;;;;;6.30;2.10;;;26.30;60.00;;;;;;220787;1268;22558;-47
2022/07/01 22:01:48;;;;;;;3.20;2.10;;;26.30;58.00;;;;;;220538;1270;25373;-49
2022/07/01 22:12:07;;;;;;;7.30;1.80;;;26.30;58.30;;;;;;220712;1265;24075;-46
2022/07/01 22:17:23;;;;;;;7.40;2.10;;;26.30;58.40;;;;;;220563;1268;24357;-49
2022/07/01 22:22:34;;;;;;;3.20;1.80;;;26.30;58.50;;;;;;220740;1268;23473;-48
2022/07/01 22:27:37;;;;;;;5.70;2.00;;;26.40;60.30;;;;;;220304;1268;24317;-48
2022/07/01 22:32:41;;;;;;;4.70;2.10;;;26.40;59.30;;;;;;220750;1268;25494;-50
2022/07/01 22:37:45;;;;;;;7.00;2.00;;;26.40;59.00;;;;;;220472;1266;25294;-50
2022/07/01 22:42:55;;;;;;;4.20;2.10;;;26.40;59.70;;;;;;220700;1265;25256;-48
2022/07/01 22:48:04;;;;;;;3.90;1.90;;;26.40;59.20;;;;;;220834;1268;25419;-48
2022/07/01 22:53:46;;;;;;;5.40;2.10;;;26.40;59.20;;;;;;220559;1268;22595;-48
2022/07/01 22:58:56;;;;;;;3.10;1.80;;;26.40;59.20;;;;;;220364;1268;24391;-47
2022/07/01 23:04:07;;;;;;;2.90;1.70;;;26.40;58.90;;;;;;220446;1268;25288;-47
2022/07/01 23:09:17;;;;;;;3.30;1.70;;;26.40;59.20;;;;;;221195;1270;23935;-48
2022/07/01 23:19:48;;;;;;;4.40;1.70;;;26.40;59.40;;;;;;220483;1265;22538;-54
2022/07/01 23:24:55;;;;;;;4.40;2.10;;;26.40;59.60;;;;;;220536;1268;22786;-46
2022/07/01 23:30:00;;;;;;;3.10;1.90;;;26.40;59.40;;;;;;220902;1270;22707;-54
2022/07/01 23:35:03;;;;;;;2.20;1.60;;;26.40;59.80;;;;;;220686;1268;25435;-47
2022/07/01 23:40:07;;;;;;;2.60;1.80;;;26.40;60.10;;;;;;220736;1268;25270;-48
2022/07/01 23:45:10;;;;;;;2.60;1.80;;;26.40;59.80;;;;;;220717;1268;25260;-47
2022/07/01 23:50:18;;;;;;;4.80;1.90;;;26.40;59.70;;;;;;220516;1270;22717;-49
2022/07/01 23:55:23;;;;;;;2.60;1.80;;;26.40;59.30;;;;;;220558;1268;22537;-49
